CheckWX is a tool to help pilots better visualize weather data.  It is not intended as a substitute for an official pre-flight weather briefing.

09:43:20 UTC

KEBA METAR
Elbert County-Patz Field Airport
Elberton, Georgia, USA
Current

28 mins ago

KEBA 200915Z AUTO 05003KT 5SM BR OVC003 04/04 A3032 RMK AO2 T00440038
Observed
Feb-20 @ 09:15 UTC
Wind
  • 050° at 3 KTS
Visibility
8,047 meters
Flight Rules
LIFR
Conditions
Mist
Cloud Levels
  • Overcast at 300' AGL
Temperature
C / 39°F
Dewpoint
C / 39°F
Humidity
100%
Altimeter
30.32" Hg
Pressure
1026.72 hPa
Previous

48 mins ago

KEBA 200855Z AUTO 04003KT 7SM OVC003 05/04 A3034 RMK AO2 T00450038
Observed
Feb-20 @ 08:55 UTC
Wind
  • 040° at 3 KTS
Visibility
11,265 meters
Flight Rules
LIFR
Cloud Levels
  • Overcast at 300' AGL
Temperature
C / 41°F
Dewpoint
C / 39°F
Humidity
93%
Altimeter
30.34" Hg
Pressure
1027.42 hPa
Previous

1 hour ago

KEBA 200835Z AUTO 03005KT 7SM OVC003 04/04 A3035 RMK AO2 T00440037
Observed
Feb-20 @ 08:35 UTC
Wind
  • 030° at 5 KTS
Visibility
11,265 meters
Flight Rules
LIFR
Cloud Levels
  • Overcast at 300' AGL
Temperature
C / 39°F
Dewpoint
C / 39°F
Humidity
100%
Altimeter
30.35" Hg
Pressure
1027.82 hPa